Canaan, Maine
Current Conditions -  °F | °C
As of 1:55 PM on Monday 20 Oct 2014 (Local Time) from KWVL Reporting Station
Clear Clear  
Wind Chill: 44°   Ceiling: Unl
Heat Index: 48°   Visibility: 10mi
Dew Point: 25°   Wind: 10mph
Humidity: 40%   Direction: 240°WSW
Pressure: 29.89"   Gusts: NA
Location:  44.76°N, 69.56°W
Report Text: KWVL 201755Z 24009KT 10SM CLR 09/M04 A2989 RMK AO1 10090 20040 57014
Loading
Personal Weather Stations






























Interactive Weather Map
Tropical Storm Tracking
New forecast layout! Learn more

10-Day Weather Forecast

Advertisements
Track Severe Weather on mobile